Aeroporto :
LOGIN :

Iscrizione | Disclaimer

   EN    FR    IT 

 










Sommario :    VFR   VFR Marginale   IFR   IFR Intensivo   IFR Molto Intensivo
Visibilità : 
Base nubi : 
>= 8 km
>= 3000ft
5 / 8 km
1000 / 3000 ft
1500m / 5 km
500 / 1000 ft
800 / 1500m
200 / 500 ft
< 800m
< 200 ft
Simboli :   Temporali  Nebbia  Neve Forte  Precipitazioni Forti  Vento > 20 kt
SIGMETs :   Varie  Temporali  Ghiacco  Turbolenza  Onda orograficha  Ceneri Vulcaniche






- Altitudine del aeroporto : 364 ft
- Codice IATA : FRA


EDDF - Frankfurt Int.

ULTIMO METAR :
  • 121020Z 18011KT 150V210 9999 FEW016 SCT030 07/03 Q1005 NOSIG

METARs OBSOLETI :
  • 120950Z 18008KT 150V210 9999 FEW012 SCT030 07/04 Q1005 NOSIG
  • 120920Z 19009KT 160V220 9999 FEW012 BKN027 06/03 Q1006 NOSIG
  • 120850Z 18010KT 9999 FEW008 BKN025 06/04 Q1006 NOSIG
  • 120820Z 18008KT 9999 FEW008 BKN027 05/04 Q1006 NOSIG
  • 120750Z 20007KT 9999 FEW008 BKN027 05/04 Q1006 NOSIG

TAF TAF EDDF
Valido dal 12 a 06 ore il 13 a 12 ore UTC


120500Z 1206/1312 19009KT 9999 BKN040
PROB30
TEMPO 1212/1218 21015G25KT SHRA BKN020CB
BECMG 1219/1222 18004KT
PROB30
TEMPO 1303/1308 4000 BR BKN008
PROB30
TEMPO 1308/1312 4000 DZRA BKN012



MetMap, La meteo Aeronautica in un colpo d'occhio ! - Copyright ORBIFLY Dicembre 2007 - Disclaimer

ORBIFLY MET'MAP TEAM :

Programmazione e sviluppo : Alexandra Zaïnal
Concezione e sviluppo : Baudouin d'Aumeries
Co-Programmazione e sviluppo : Marc-Olivier Méhu
Supporto tecnico e logistico : Manuel Goepfert
Aiuto per la traduzione : Arnaldo La Scala

Contatto : metmap@orbifly.com




FONTI E CREDITI :

   NOAA